createdAt,value
2022-11-13T00:01:56.271Z,98335.06
2022-11-13T00:07:36.581Z,98348.13
2022-11-13T00:13:16.931Z,98353.81
2022-11-13T00:18:57.633Z,98351.28
2022-11-13T00:24:38.103Z,98360.13
2022-11-13T00:30:19.665Z,98338.53
2022-11-13T00:36:20.331Z,98372.75
2022-11-13T00:42:01.101Z,98368.34
2022-11-13T00:47:41.710Z,98360.13
2022-11-13T00:53:22.152Z,98371.66
2022-11-13T00:59:02.861Z,98374.94
2022-11-13T01:04:43.652Z,98385.84
2022-11-13T01:10:25.391Z,98383.97
2022-11-13T01:16:10.622Z,98379.22
2022-11-13T01:21:50.752Z,98377.28
2022-11-13T01:27:30.921Z,98384.22
2022-11-13T01:33:11.673Z,98388.63
2022-11-13T01:38:52.773Z,98385.50
2022-11-13T01:44:55.302Z,98379.75
2022-11-13T01:50:35.976Z,98378.53
2022-11-13T01:56:17.309Z,98392.25
2022-11-13T02:01:58.247Z,98379.31
2022-11-13T02:07:38.962Z,98370.31
2022-11-13T02:13:20.442Z,98384.66
2022-11-13T02:19:02.861Z,98384.78
2022-11-13T02:24:47.892Z,98371.16
2022-11-13T02:30:34.404Z,98417.88
2022-11-13T02:36:15.514Z,98409.22
2022-11-13T02:41:55.951Z,98424.69
2022-11-13T02:47:36.672Z,98437.75
2022-11-13T02:53:19.251Z,98414.66
2022-11-13T02:58:59.741Z,98444.00
2022-11-13T03:05:10.393Z,98447.88
2022-11-13T03:10:40.792Z,98443.53
2022-11-13T03:16:20.902Z,98424.34
2022-11-13T03:22:01.522Z,98430.84
2022-11-13T03:27:41.720Z,98462.75
2022-11-13T03:33:21.893Z,98472.00
2022-11-13T03:39:02.234Z,98473.97
2022-11-13T03:44:42.606Z,98471.72
2022-11-13T03:50:23.791Z,98445.28
2022-11-13T03:56:03.512Z,98491.16
2022-11-13T04:01:43.664Z,98479.28
2022-11-13T04:07:24.082Z,98465.81
2022-11-13T04:13:04.742Z,98485.63
2022-11-13T04:18:45.333Z,98489.03
2022-11-13T04:24:25.820Z,98450.63
2022-11-13T04:30:06.566Z,98499.38
2022-11-13T04:35:46.957Z,98494.22
2022-11-13T04:41:47.292Z,98480.78
2022-11-13T04:47:30.105Z,98494.03
2022-11-13T04:53:13.063Z,98499.47
2022-11-13T04:58:53.620Z,98514.19
2022-11-13T05:04:34.208Z,98499.56
2022-11-13T05:10:14.801Z,98508.00
2022-11-13T05:16:07.030Z,98508.97
2022-11-13T05:21:47.140Z,98498.97
2022-11-13T05:27:27.510Z,98509.84
2022-11-13T05:33:07.983Z,98528.31
2022-11-13T05:38:50.550Z,98517.59
2022-11-13T05:44:31.040Z,98515.03
2022-11-13T05:50:11.208Z,98529.41
2022-11-13T05:55:51.550Z,98535.56
2022-11-13T06:01:40.227Z,98549.91
2022-11-13T06:07:20.923Z,98569.94
2022-11-13T06:13:01.789Z,98581.94
2022-11-13T06:18:43.849Z,98596.13
2022-11-13T06:24:24.129Z,98579.88
2022-11-13T06:30:04.531Z,98590.97
2022-11-13T06:35:45.082Z,98587.19
2022-11-13T06:41:27.449Z,98614.75
2022-11-13T06:47:07.450Z,98625.97
2022-11-13T06:52:47.650Z,98639.63
2022-11-13T06:58:28.195Z,98630.13
2022-11-13T07:04:13.210Z,98658.09
2022-11-13T07:09:53.552Z,98661.44
2022-11-13T07:15:40.071Z,98677.44
2022-11-13T07:21:21.349Z,98666.53
2022-11-13T07:27:02.284Z,98683.28
2022-11-13T07:32:42.991Z,98706.38
2022-11-13T07:38:23.710Z,98712.53
2022-11-13T07:44:08.857Z,98706.38
2022-11-13T07:49:49.460Z,98722.63
2022-11-13T07:55:30.790Z,98727.72
2022-11-13T08:01:11.741Z,98738.50
2022-11-13T08:06:51.983Z,98748.41
2022-11-13T08:12:32.333Z,98757.25
2022-11-13T08:18:12.510Z,98759.19
2022-11-13T08:23:52.492Z,98769.53
2022-11-13T08:29:32.861Z,98778.28
2022-11-13T08:35:18.789Z,98787.59
2022-11-13T08:41:08.604Z,98797.31
2022-11-13T08:46:49.433Z,98786.59
2022-11-13T08:52:29.793Z,98796.72
2022-11-13T08:58:10.472Z,98807.84
2022-11-13T09:03:51.023Z,98822.66
2022-11-13T09:09:31.163Z,98842.06
2022-11-13T09:15:12.521Z,98848.22
2022-11-13T09:20:53.051Z,98819.44
2022-11-13T09:26:34.634Z,98826.03
2022-11-13T09:32:16.524Z,98843.88
2022-11-13T09:37:57.113Z,98835.72
2022-11-13T09:44:06.424Z,98871.28
2022-11-13T09:49:55.146Z,98879.81
2022-11-13T09:55:42.902Z,98868.97
2022-11-13T10:01:32.223Z,98888.13
2022-11-13T10:07:29.474Z,98896.38
2022-11-13T10:13:20.464Z,98914.81
2022-11-13T10:19:16.972Z,98928.47
2022-11-13T10:25:29.351Z,98925.88
2022-11-13T10:31:17.161Z,98921.38
2022-11-13T10:37:36.102Z,98947.78
2022-11-13T10:43:19.730Z,98957.63
2022-11-13T10:49:12.788Z,98959.50
2022-11-13T10:55:13.913Z,98936.44
2022-11-13T11:00:54.149Z,98976.41
2022-11-13T11:12:40.671Z,98976.59
2022-11-13T11:18:20.261Z,99001.66
2022-11-13T11:24:23.494Z,99010.78
2022-11-13T11:30:26.825Z,99020.63
2022-11-13T11:36:31.514Z,99031.66
2022-11-13T11:42:30.102Z,99033.53
2022-11-13T11:48:16.966Z,99024.16
2022-11-13T11:54:12.654Z,99050.59
2022-11-13T12:00:15.581Z,99065.78
2022-11-13T12:06:24.260Z,99086.41
2022-11-13T12:12:45.169Z,99083.50
2022-11-13T12:18:25.888Z,99090.44
2022-11-13T12:24:11.959Z,99104.88
2022-11-13T12:30:25.342Z,99121.97
2022-11-13T12:36:06.632Z,99118.81
2022-11-13T12:42:11.964Z,99135.34
2022-11-13T12:47:52.837Z,99133.00
2022-11-13T12:53:47.121Z,99142.31
2022-11-13T12:59:32.485Z,99157.78
2022-11-13T13:05:34.642Z,99168.97
2022-11-13T13:12:00.471Z,99168.72
2022-11-13T13:17:43.050Z,99140.75
2022-11-13T13:23:53.900Z,99193.53
2022-11-13T13:29:34.593Z,99195.69
2022-11-13T13:35:23.001Z,99194.63
2022-11-13T13:41:03.029Z,99217.31
2022-11-13T13:46:44.730Z,99226.94
2022-11-13T13:52:33.764Z,99230.38
2022-11-13T13:58:19.401Z,99241.03
2022-11-13T14:04:28.470Z,99224.00
2022-11-13T14:10:21.382Z,99244.25
2022-11-13T14:16:04.663Z,99239.97
2022-11-13T14:21:46.861Z,99276.25
2022-11-13T14:27:29.563Z,99280.81
2022-11-13T14:33:15.653Z,99292.28
2022-11-13T14:38:56.572Z,99278.41
2022-11-13T14:44:36.763Z,99312.53
2022-11-13T14:50:24.561Z,99339.78
2022-11-13T14:56:11.372Z,99341.63
2022-11-13T15:01:56.291Z,99350.97
2022-11-13T15:07:42.628Z,99353.63
2022-11-13T15:13:22.751Z,99339.72
2022-11-13T15:19:26.402Z,99377.06
2022-11-13T15:25:14.372Z,99379.69
2022-11-13T15:30:54.797Z,99389.00
2022-11-13T15:36:35.579Z,99388.38
2022-11-13T15:42:19.063Z,99405.22
2022-11-13T15:48:02.381Z,99377.41
2022-11-13T15:53:43.331Z,99420.91
2022-11-13T15:59:23.544Z,99404.66
2022-11-13T16:05:03.731Z,99428.59
2022-11-13T16:10:44.252Z,99436.91
2022-11-13T16:16:27.825Z,99445.97
2022-11-13T16:22:17.856Z,99437.72
2022-11-13T16:27:58.251Z,99453.19
2022-11-13T16:33:38.862Z,99456.41
2022-11-13T16:39:19.423Z,99454.22
2022-11-13T16:44:59.771Z,99473.19
2022-11-13T16:50:40.842Z,99493.25
2022-11-13T16:56:31.314Z,99499.09
2022-11-13T17:02:17.669Z,99526.84
2022-11-13T17:07:59.913Z,99499.16
2022-11-13T17:13:41.038Z,99540.16
2022-11-13T17:19:21.138Z,99540.56
2022-11-13T17:25:02.320Z,99540.72
2022-11-13T17:30:43.112Z,99557.19
2022-11-13T17:36:23.601Z,99555.81
2022-11-13T17:42:03.752Z,99554.97
2022-11-13T17:47:44.561Z,99556.81
2022-11-13T17:53:39.431Z,99577.63
2022-11-13T17:59:25.353Z,99589.34
2022-11-13T18:05:10.349Z,99605.94
2022-11-13T18:10:54.111Z,99601.91
2022-11-13T18:16:38.555Z,99597.94
2022-11-13T18:22:19.703Z,99640.44
2022-11-13T18:28:03.339Z,99648.38
2022-11-13T18:33:44.622Z,99642.69
2022-11-13T18:39:24.967Z,99659.09
2022-11-13T18:45:06.378Z,99671.56
2022-11-13T18:50:59.413Z,99699.53
2022-11-13T18:56:41.132Z,99688.59
2022-11-13T19:02:21.345Z,99705.53
2022-11-13T19:08:01.882Z,99693.47
2022-11-13T19:13:43.805Z,99706.81
2022-11-13T19:19:24.862Z,99719.56
2022-11-13T19:25:05.203Z,99720.88
2022-11-13T19:30:46.963Z,99723.44
2022-11-13T19:36:29.517Z,99735.72
2022-11-13T19:42:09.940Z,99703.31
2022-11-13T19:47:50.341Z,99741.03
2022-11-13T19:53:32.030Z,99724.75
2022-11-13T19:59:12.165Z,99756.00
2022-11-13T20:04:52.482Z,99746.00
2022-11-13T20:10:33.163Z,99769.56
2022-11-13T20:16:14.990Z,99776.25
2022-11-13T20:21:55.204Z,99781.00
2022-11-13T20:27:37.350Z,99783.06
2022-11-13T20:33:22.393Z,99790.50
2022-11-13T20:39:06.876Z,99802.66
2022-11-13T20:44:49.285Z,99788.69
2022-11-13T20:50:29.391Z,99797.50
2022-11-13T20:56:10.726Z,99798.13
2022-11-13T21:01:51.410Z,99802.28
2022-11-13T21:07:31.784Z,99825.06
2022-11-13T21:13:11.943Z,99847.72
2022-11-13T21:18:52.603Z,99848.59
2022-11-13T21:24:33.002Z,99835.03
2022-11-13T21:30:14.784Z,99838.75
2022-11-13T21:35:55.424Z,99853.88
2022-11-13T21:41:35.942Z,99853.53
2022-11-13T21:47:16.052Z,99874.84
2022-11-13T21:52:56.304Z,99871.78
2022-11-13T21:58:39.502Z,99864.03
2022-11-13T22:04:19.942Z,99873.34
2022-11-13T22:17:19.326Z,99880.31
2022-11-13T22:22:59.324Z,99868.97
2022-11-13T22:28:41.884Z,99907.63
2022-11-13T22:34:21.882Z,99926.50
2022-11-13T22:40:02.126Z,99931.13
2022-11-13T22:45:42.862Z,99907.38
2022-11-13T22:51:31.185Z,99930.34
2022-11-13T22:57:11.766Z,99928.28
2022-11-13T23:02:52.275Z,99935.78
2022-11-13T23:08:33.147Z,99941.69
2022-11-13T23:14:16.287Z,99953.66
2022-11-13T23:19:56.347Z,99948.97
2022-11-13T23:25:37.191Z,99963.59
2022-11-13T23:31:18.216Z,99991.78
2022-11-13T23:36:58.299Z,100005.56
2022-11-13T23:42:54.309Z,100000.53
2022-11-13T23:48:35.859Z,99999.97
2022-11-13T23:54:16.263Z,100006.81
2022-11-13T23:59:57.165Z,100038.97
